sensor_id;sensor_type;location;lat;lon;timestamp;pressure;altitude;pressure_sealevel;temperature;humidity
71151;BME280;59071;42.138;24.768;2023-02-11T00:01:10;101601.91;;;-3.65;59.49
71151;BME280;59071;42.138;24.768;2023-02-11T00:03:36;101606.13;;;-3.23;59.12
71151;BME280;59071;42.138;24.768;2023-02-11T00:06:03;101607.56;;;-3.55;58.80
71151;BME280;59071;42.138;24.768;2023-02-11T00:08:29;101610.03;;;-3.52;59.61
71151;BME280;59071;42.138;24.768;2023-02-11T00:10:55;101606.44;;;-3.49;58.44
71151;BME280;59071;42.138;24.768;2023-02-11T00:13:21;101607.66;;;-3.38;58.04
71151;BME280;59071;42.138;24.768;2023-02-11T00:15:46;101616.25;;;-3.17;57.42
71151;BME280;59071;42.138;24.768;2023-02-11T00:18:11;101606.63;;;-3.15;55.37
71151;BME280;59071;42.138;24.768;2023-02-11T00:20:39;101610.50;;;-3.04;56.50
71151;BME280;59071;42.138;24.768;2023-02-11T00:23:05;101602.59;;;-2.84;55.13
71151;BME280;59071;42.138;24.768;2023-02-11T00:25:30;101602.34;;;-3.16;56.56
71151;BME280;59071;42.138;24.768;2023-02-11T00:27:56;101608.50;;;-3.18;57.08
71151;BME280;59071;42.138;24.768;2023-02-11T00:30:21;101607.88;;;-3.23;57.29
71151;BME280;59071;42.138;24.768;2023-02-11T00:32:46;101611.59;;;-3.48;56.44
71151;BME280;59071;42.138;24.768;2023-02-11T00:35:11;101610.72;;;-3.48;58.13
71151;BME280;59071;42.138;24.768;2023-02-11T00:37:37;101605.75;;;-3.34;58.39
71151;BME280;59071;42.138;24.768;2023-02-11T00:40:03;101599.03;;;-3.59;57.58
71151;BME280;59071;42.138;24.768;2023-02-11T00:42:28;101607.16;;;-3.66;58.33
71151;BME280;59071;42.138;24.768;2023-02-11T00:44:54;101607.56;;;-3.76;59.50
71151;BME280;59071;42.138;24.768;2023-02-11T00:47:19;101611.91;;;-3.56;57.62
71151;BME280;59071;42.138;24.768;2023-02-11T00:49:44;101606.13;;;-3.62;58.78
71151;BME280;59071;42.138;24.768;2023-02-11T00:52:09;101606.31;;;-3.67;59.94
71151;BME280;59071;42.138;24.768;2023-02-11T00:54:35;101608.53;;;-3.58;58.97
71151;BME280;59071;42.138;24.768;2023-02-11T00:57:00;101600.78;;;-3.80;58.33
71151;BME280;59071;42.138;24.768;2023-02-11T00:59:25;101600.75;;;-3.78;58.90
71151;BME280;59071;42.138;24.768;2023-02-11T01:01:51;101604.06;;;-3.75;58.27
71151;BME280;59071;42.138;24.768;2023-02-11T01:04:16;101599.69;;;-3.74;59.70
71151;BME280;59071;42.138;24.768;2023-02-11T01:06:41;101602.56;;;-3.80;58.22
71151;BME280;59071;42.138;24.768;2023-02-11T01:09:07;101592.66;;;-3.93;60.13
71151;BME280;59071;42.138;24.768;2023-02-11T01:11:32;101595.72;;;-3.83;60.85
71151;BME280;59071;42.138;24.768;2023-02-11T01:13:57;101587.47;;;-3.72;59.28
71151;BME280;59071;42.138;24.768;2023-02-11T01:16:23;101599.88;;;-3.58;59.70
71151;BME280;59071;42.138;24.768;2023-02-11T01:18:48;101594.03;;;-3.63;59.35
71151;BME280;59071;42.138;24.768;2023-02-11T01:21:13;101591.22;;;-3.59;58.06
71151;BME280;59071;42.138;24.768;2023-02-11T01:23:39;101585.75;;;-3.53;59.22
71151;BME280;59071;42.138;24.768;2023-02-11T01:26:04;101580.03;;;-3.61;58.32
71151;BME280;59071;42.138;24.768;2023-02-11T01:28:30;101576.81;;;-3.47;57.93
71151;BME280;59071;42.138;24.768;2023-02-11T01:30:55;101575.63;;;-3.40;58.86
71151;BME280;59071;42.138;24.768;2023-02-11T01:33:21;101570.00;;;-3.30;58.07
71151;BME280;59071;42.138;24.768;2023-02-11T01:35:47;101581.63;;;-3.38;57.47
71151;BME280;59071;42.138;24.768;2023-02-11T01:38:22;101572.72;;;-3.53;59.20
71151;BME280;59071;42.138;24.768;2023-02-11T01:40:55;101564.06;;;-3.53;57.44
71151;BME280;59071;42.138;24.768;2023-02-11T01:43:21;101561.75;;;-3.59;59.32
71151;BME280;59071;42.138;24.768;2023-02-11T01:48:13;101555.84;;;-3.63;58.44
71151;BME280;59071;42.138;24.768;2023-02-11T01:50:39;101556.47;;;-3.58;57.88
71151;BME280;59071;42.138;24.768;2023-02-11T01:53:05;101554.72;;;-3.57;58.16
71151;BME280;59071;42.138;24.768;2023-02-11T01:55:50;101550.78;;;-3.47;58.20
71151;BME280;59071;42.138;24.768;2023-02-11T01:58:34;101558.25;;;-3.39;56.67
71151;BME280;59071;42.138;24.768;2023-02-11T02:01:03;101553.31;;;-3.45;58.48
71151;BME280;59071;42.138;24.768;2023-02-11T02:03:28;101562.69;;;-3.41;58.42
71151;BME280;59071;42.138;24.768;2023-02-11T02:06:00;101559.25;;;-3.23;58.20
71151;BME280;59071;42.138;24.768;2023-02-11T02:08:32;101555.28;;;-3.31;58.81
71151;BME280;59071;42.138;24.768;2023-02-11T02:10:59;101552.34;;;-3.24;57.49
71151;BME280;59071;42.138;24.768;2023-02-11T02:13:25;101550.25;;;-3.35;57.82
71151;BME280;59071;42.138;24.768;2023-02-11T02:16:01;101541.84;;;-3.41;58.74
71151;BME280;59071;42.138;24.768;2023-02-11T02:23:31;101537.63;;;-3.83;58.73
71151;BME280;59071;42.138;24.768;2023-02-11T02:31:25;101556.75;;;-3.45;58.79
71151;BME280;59071;42.138;24.768;2023-02-11T02:34:00;101549.56;;;-3.59;57.96
71151;BME280;59071;42.138;24.768;2023-02-11T02:36:29;101555.06;;;-3.85;57.88
71151;BME280;59071;42.138;24.768;2023-02-11T02:39:00;101565.75;;;-3.91;59.09
71151;BME280;59071;42.138;24.768;2023-02-11T02:41:31;101565.88;;;-3.74;58.80
71151;BME280;59071;42.138;24.768;2023-02-11T02:43:57;101566.91;;;-4.19;59.71
71151;BME280;59071;42.138;24.768;2023-02-11T02:46:24;101567.16;;;-4.25;59.76
71151;BME280;59071;42.138;24.768;2023-02-11T02:48:50;101567.50;;;-4.13;60.99
71151;BME280;59071;42.138;24.768;2023-02-11T02:53:59;101579.91;;;-4.40;62.13
71151;BME280;59071;42.138;24.768;2023-02-11T02:56:33;101542.38;;;-4.55;61.31
71151;BME280;59071;42.138;24.768;2023-02-11T03:09:02;101556.16;;;-4.53;62.25
71151;BME280;59071;42.138;24.768;2023-02-11T03:11:30;101570.41;;;-4.41;60.71
71151;BME280;59071;42.138;24.768;2023-02-11T03:13:55;101571.22;;;-4.40;60.96
71151;BME280;59071;42.138;24.768;2023-02-11T03:16:23;101573.72;;;-4.37;60.46
71151;BME280;59071;42.138;24.768;2023-02-11T03:18:51;101569.56;;;-4.63;60.47
71151;BME280;59071;42.138;24.768;2023-02-11T03:21:17;101564.94;;;-4.35;60.02
71151;BME280;59071;42.138;24.768;2023-02-11T03:23:52;101567.81;;;-4.63;60.92
71151;BME280;59071;42.138;24.768;2023-02-11T03:26:28;101563.00;;;-4.72;60.99
71151;BME280;59071;42.138;24.768;2023-02-11T03:28:58;101557.59;;;-4.67;62.53
71151;BME280;59071;42.138;24.768;2023-02-11T03:34:13;101562.00;;;-4.92;62.95
71151;BME280;59071;42.138;24.768;2023-02-11T03:36:41;101571.66;;;-5.17;63.61
71151;BME280;59071;42.138;24.768;2023-02-11T03:39:11;101567.13;;;-5.12;63.78
71151;BME280;59071;42.138;24.768;2023-02-11T03:41:37;101567.75;;;-5.05;63.41
71151;BME280;59071;42.138;24.768;2023-02-11T03:44:03;101569.84;;;-4.93;63.23
71151;BME280;59071;42.138;24.768;2023-02-11T03:46:31;101577.31;;;-4.62;62.27
71151;BME280;59071;42.138;24.768;2023-02-11T03:49:01;101569.31;;;-4.57;62.08
71151;BME280;59071;42.138;24.768;2023-02-11T03:51:26;101570.59;;;-4.67;63.77
71151;BME280;59071;42.138;24.768;2023-02-11T03:53:54;101568.97;;;-4.92;63.81
71151;BME280;59071;42.138;24.768;2023-02-11T03:56:20;101564.66;;;-4.93;64.60
71151;BME280;59071;42.138;24.768;2023-02-11T03:58:48;101570.03;;;-4.98;64.97
71151;BME280;59071;42.138;24.768;2023-02-11T04:01:13;101566.13;;;-5.08;64.92
71151;BME280;59071;42.138;24.768;2023-02-11T04:03:39;101570.00;;;-4.96;64.64
71151;BME280;59071;42.138;24.768;2023-02-11T04:06:04;101568.66;;;-4.84;63.67
71151;BME280;59071;42.138;24.768;2023-02-11T04:08:30;101560.44;;;-4.96;63.46
71151;BME280;59071;42.138;24.768;2023-02-11T04:10:56;101568.97;;;-4.92;63.85
71151;BME280;59071;42.138;24.768;2023-02-11T04:13:21;101568.97;;;-4.92;63.73
71151;BME280;59071;42.138;24.768;2023-02-11T04:15:46;101570.53;;;-5.10;65.32
71151;BME280;59071;42.138;24.768;2023-02-11T04:18:12;101569.06;;;-5.17;66.04
71151;BME280;59071;42.138;24.768;2023-02-11T04:20:37;101561.41;;;-4.98;64.72
71151;BME280;59071;42.138;24.768;2023-02-11T04:23:02;101567.75;;;-5.05;64.82
71151;BME280;59071;42.138;24.768;2023-02-11T04:25:27;101560.31;;;-4.71;64.30
71151;BME280;59071;42.138;24.768;2023-02-11T04:27:53;101562.34;;;-4.35;63.76
71151;BME280;59071;42.138;24.768;2023-02-11T04:30:18;101564.69;;;-4.49;62.21
71151;BME280;59071;42.138;24.768;2023-02-11T04:32:43;101558.38;;;-4.43;63.00
71151;BME280;59071;42.138;24.768;2023-02-11T04:35:09;101552.59;;;-4.72;63.39
71151;BME280;59071;42.138;24.768;2023-02-11T04:37:34;101552.41;;;-4.89;63.94
71151;BME280;59071;42.138;24.768;2023-02-11T04:39:59;101555.25;;;-4.96;63.44
71151;BME280;59071;42.138;24.768;2023-02-11T04:42:25;101556.31;;;-5.01;64.27
71151;BME280;59071;42.138;24.768;2023-02-11T04:44:50;101544.13;;;-4.99;64.85
71151;BME280;59071;42.138;24.768;2023-02-11T04:47:15;101550.59;;;-5.09;64.06
71151;BME280;59071;42.138;24.768;2023-02-11T04:49:41;101564.38;;;-5.31;65.05
71151;BME280;59071;42.138;24.768;2023-02-11T04:52:06;101558.56;;;-5.38;65.32
71151;BME280;59071;42.138;24.768;2023-02-11T04:54:32;101548.88;;;-5.11;64.60
71151;BME280;59071;42.138;24.768;2023-02-11T04:56:57;101550.28;;;-5.02;64.75
71151;BME280;59071;42.138;24.768;2023-02-11T04:59:23;101551.25;;;-5.04;64.35
71151;BME280;59071;42.138;24.768;2023-02-11T05:01:48;101556.50;;;-5.06;64.40
71151;BME280;59071;42.138;24.768;2023-02-11T05:04:14;101546.06;;;-5.04;64.14
71151;BME280;59071;42.138;24.768;2023-02-11T05:06:39;101543.72;;;-5.34;65.17
71151;BME280;59071;42.138;24.768;2023-02-11T05:09:04;101540.31;;;-5.13;65.82
71151;BME280;59071;42.138;24.768;2023-02-11T05:11:30;101546.56;;;-5.40;65.18
71151;BME280;59071;42.138;24.768;2023-02-11T05:13:55;101538.94;;;-4.99;66.09
71151;BME280;59071;42.138;24.768;2023-02-11T05:16:20;101535.00;;;-5.09;65.18
71151;BME280;59071;42.138;24.768;2023-02-11T05:18:46;101539.06;;;-5.02;63.90
71151;BME280;59071;42.138;24.768;2023-02-11T05:21:12;101534.47;;;-4.74;63.43
71151;BME280;59071;42.138;24.768;2023-02-11T05:23:39;101542.22;;;-4.52;63.57
71151;BME280;59071;42.138;24.768;2023-02-11T05:26:04;101542.91;;;-4.46;62.73
71151;BME280;59071;42.138;24.768;2023-02-11T05:28:30;101542.78;;;-4.43;62.92
71151;BME280;59071;42.138;24.768;2023-02-11T05:30:55;101545.28;;;-4.42;63.83
71151;BME280;59071;42.138;24.768;2023-02-11T05:33:21;101542.91;;;-4.46;62.21
71151;BME280;59071;42.138;24.768;2023-02-11T05:35:46;101556.94;;;-4.50;62.46
71151;BME280;59071;42.138;24.768;2023-02-11T05:38:11;101552.56;;;-4.50;61.45
71151;BME280;59071;42.138;24.768;2023-02-11T05:40:36;101553.81;;;-4.81;61.76
71151;BME280;59071;42.138;24.768;2023-02-11T05:43:02;101550.22;;;-4.78;61.71
71151;BME280;59071;42.138;24.768;2023-02-11T05:45:27;101551.78;;;-4.52;61.32
71151;BME280;59071;42.138;24.768;2023-02-11T05:47:52;101554.28;;;-4.28;61.27
71151;BME280;59071;42.138;24.768;2023-02-11T05:50:18;101556.97;;;-3.89;60.99
71151;BME280;59071;42.138;24.768;2023-02-11T05:52:43;101554.91;;;-4.01;61.60
71151;BME280;59071;42.138;24.768;2023-02-11T05:55:08;101561.44;;;-3.13;59.65
71151;BME280;59071;42.138;24.768;2023-02-11T05:57:34;101561.00;;;-2.85;57.46
71151;BME280;59071;42.138;24.768;2023-02-11T05:59:59;101570.00;;;-2.73;57.22
71151;BME280;59071;42.138;24.768;2023-02-11T06:02:24;101569.94;;;-2.54;56.64
71151;BME280;59071;42.138;24.768;2023-02-11T06:04:50;101569.00;;;-2.53;55.98
71151;BME280;59071;42.138;24.768;2023-02-11T06:07:15;101558.53;;;-2.34;56.32
71151;BME280;59071;42.138;24.768;2023-02-11T06:09:41;101565.59;;;-1.84;54.53
71151;BME280;59071;42.138;24.768;2023-02-11T06:12:06;101571.94;;;-1.72;54.24
71151;BME280;59071;42.138;24.768;2023-02-11T06:14:32;101568.50;;;-1.73;53.57
71151;BME280;59071;42.138;24.768;2023-02-11T06:16:58;101555.31;;;-1.54;52.63
71151;BME280;59071;42.138;24.768;2023-02-11T06:19:23;101571.25;;;-1.76;53.08
71151;BME280;59071;42.138;24.768;2023-02-11T06:21:48;101565.66;;;-1.52;51.97
71151;BME280;59071;42.138;24.768;2023-02-11T06:24:14;101574.78;;;-1.10;53.37
71151;BME280;59071;42.138;24.768;2023-02-11T06:26:39;101557.91;;;-0.89;51.02
71151;BME280;59071;42.138;24.768;2023-02-11T06:29:04;101561.72;;;-0.48;49.80
71151;BME280;59071;42.138;24.768;2023-02-11T06:31:30;101562.63;;;-0.80;50.16
71151;BME280;59071;42.138;24.768;2023-02-11T06:33:55;101567.22;;;-0.69;50.27
71151;BME280;59071;42.138;24.768;2023-02-11T06:36:20;101569.94;;;-0.24;49.41
71151;BME280;59071;42.138;24.768;2023-02-11T06:38:46;101570.09;;;0.03;48.64
71151;BME280;59071;42.138;24.768;2023-02-11T06:41:13;101568.44;;;0.02;48.25
71151;BME280;59071;42.138;24.768;2023-02-11T06:43:39;101566.28;;;0.09;49.65
71151;BME280;59071;42.138;24.768;2023-02-11T06:46:04;101560.06;;;0.40;48.02
71151;BME280;59071;42.138;24.768;2023-02-11T06:48:29;101558.53;;;0.65;47.09
71151;BME280;59071;42.138;24.768;2023-02-11T06:50:55;101560.09;;;0.96;46.52
71151;BME280;59071;42.138;24.768;2023-02-11T06:53:20;101558.13;;;1.54;44.40
71151;BME280;59071;42.138;24.768;2023-02-11T06:55:45;101554.00;;;2.54;43.21
71151;BME280;59071;42.138;24.768;2023-02-11T06:58:11;101551.28;;;2.30;45.87
71151;BME280;59071;42.138;24.768;2023-02-11T07:00:36;101558.75;;;2.49;43.39
71151;BME280;59071;42.138;24.768;2023-02-11T07:03:01;101551.56;;;2.77;42.12
71151;BME280;59071;42.138;24.768;2023-02-11T07:05:27;101553.19;;;3.03;40.47
71151;BME280;59071;42.138;24.768;2023-02-11T07:07:52;101553.34;;;3.13;50.31
71151;BME280;59071;42.138;24.768;2023-02-11T07:10:17;101544.84;;;3.09;41.10
71151;BME280;59071;42.138;24.768;2023-02-11T07:12:42;101539.28;;;3.01;40.79
71151;BME280;59071;42.138;24.768;2023-02-11T07:15:08;101538.84;;;3.07;40.48
71151;BME280;59071;42.138;24.768;2023-02-11T07:17:33;101544.00;;;3.09;40.47
71151;BME280;59071;42.138;24.768;2023-02-11T07:19:59;101540.09;;;3.15;40.57
71151;BME280;59071;42.138;24.768;2023-02-11T07:22:25;101542.47;;;3.18;39.94
71151;BME280;59071;42.138;24.768;2023-02-11T07:24:50;101547.69;;;3.30;40.01
71151;BME280;59071;42.138;24.768;2023-02-11T07:27:15;101546.34;;;3.49;39.76
71151;BME280;59071;42.138;24.768;2023-02-11T07:29:41;101539.22;;;3.62;39.33
71151;BME280;59071;42.138;24.768;2023-02-11T07:32:06;101533.75;;;3.77;38.81
71151;BME280;59071;42.138;24.768;2023-02-11T07:34:31;101530.22;;;4.00;38.50
71151;BME280;59071;42.138;24.768;2023-02-11T07:36:57;101535.38;;;4.02;38.32
71151;BME280;59071;42.138;24.768;2023-02-11T07:39:22;101529.66;;;4.19;37.66
71151;BME280;59071;42.138;24.768;2023-02-11T07:41:51;101539.47;;;4.06;37.78
71151;BME280;59071;42.138;24.768;2023-02-11T07:44:16;101536.84;;;4.62;37.79
71151;BME280;59071;42.138;24.768;2023-02-11T07:46:41;101530.50;;;4.42;37.88
71151;BME280;59071;42.138;24.768;2023-02-11T07:49:09;101527.16;;;4.29;37.19
71151;BME280;59071;42.138;24.768;2023-02-11T07:51:34;101525.94;;;4.44;36.68
71151;BME280;59071;42.138;24.768;2023-02-11T07:53:59;101527.59;;;4.79;36.23
71151;BME280;59071;42.138;24.768;2023-02-11T07:56:26;101519.09;;;5.52;34.53
71151;BME280;59071;42.138;24.768;2023-02-11T07:58:51;101536.16;;;5.47;34.19
71151;BME280;59071;42.138;24.768;2023-02-11T08:01:18;101530.09;;;5.89;33.82
71151;BME280;59071;42.138;24.768;2023-02-11T08:03:43;101521.31;;;5.88;33.50
71151;BME280;59071;42.138;24.768;2023-02-11T08:06:10;101525.91;;;5.65;34.31
71151;BME280;59071;42.138;24.768;2023-02-11T08:08:36;101526.25;;;5.61;34.60
71151;BME280;59071;42.138;24.768;2023-02-11T08:11:05;101519.38;;;5.48;34.50
71151;BME280;59071;42.138;24.768;2023-02-11T08:13:31;101521.34;;;5.35;34.91
71151;BME280;59071;42.138;24.768;2023-02-11T08:15:57;101519.81;;;5.21;35.77
71151;BME280;59071;42.138;24.768;2023-02-11T08:18:22;101517.06;;;5.97;34.10
71151;BME280;59071;42.138;24.768;2023-02-11T08:20:48;101514.88;;;6.23;33.81
71151;BME280;59071;42.138;24.768;2023-02-11T08:23:13;101506.63;;;5.96;34.42
71151;BME280;59071;42.138;24.768;2023-02-11T08:25:38;101506.75;;;5.73;34.94
71151;BME280;59071;42.138;24.768;2023-02-11T08:28:04;101507.31;;;5.56;35.52
71151;BME280;59071;42.138;24.768;2023-02-11T08:30:29;101497.88;;;5.21;36.00
71151;BME280;59071;42.138;24.768;2023-02-11T08:32:54;101491.00;;;4.97;36.50
71151;BME280;59071;42.138;24.768;2023-02-11T08:35:20;101494.31;;;5.11;36.38
71151;BME280;59071;42.138;24.768;2023-02-11T08:37:46;101496.84;;;5.86;35.75
71151;BME280;59071;42.138;24.768;2023-02-11T08:40:11;101499.31;;;5.88;35.65
71151;BME280;59071;42.138;24.768;2023-02-11T08:42:36;101492.44;;;6.18;35.03
71151;BME280;59071;42.138;24.768;2023-02-11T08:45:02;101480.47;;;5.93;35.34
71151;BME280;59071;42.138;24.768;2023-02-11T08:47:29;101487.41;;;5.94;35.50
71151;BME280;59071;42.138;24.768;2023-02-11T08:49:55;101475.81;;;6.06;35.18
71151;BME280;59071;42.138;24.768;2023-02-11T08:52:20;101480.94;;;5.23;36.89
71151;BME280;59071;42.138;24.768;2023-02-11T08:54:45;101482.03;;;5.95;36.17
71151;BME280;59071;42.138;24.768;2023-02-11T08:57:11;101488.69;;;6.51;34.99
71151;BME280;59071;42.138;24.768;2023-02-11T08:59:36;101474.91;;;6.57;34.54
71151;BME280;59071;42.138;24.768;2023-02-11T09:02:04;101472.72;;;6.72;35.10
71151;BME280;59071;42.138;24.768;2023-02-11T09:04:29;101470.38;;;6.29;36.02
71151;BME280;59071;42.138;24.768;2023-02-11T09:06:54;101463.22;;;6.70;34.74
71151;BME280;59071;42.138;24.768;2023-02-11T09:09:20;101465.38;;;7.05;34.58
71151;BME280;59071;42.138;24.768;2023-02-11T09:11:45;101459.13;;;7.35;34.61
71151;BME280;59071;42.138;24.768;2023-02-11T09:14:17;101463.00;;;7.02;34.45
71151;BME280;59071;42.138;24.768;2023-02-11T09:16:43;101456.19;;;7.19;33.78
71151;BME280;59071;42.138;24.768;2023-02-11T09:19:09;101457.16;;;7.28;34.07
71151;BME280;59071;42.138;24.768;2023-02-11T09:21:34;101452.69;;;7.28;32.56
71151;BME280;59071;42.138;24.768;2023-02-11T09:24:00;101450.19;;;6.88;33.61
71151;BME280;59071;42.138;24.768;2023-02-11T09:26:29;101451.03;;;6.98;33.35
71151;BME280;59071;42.138;24.768;2023-02-11T09:28:55;101451.13;;;8.12;32.29
71151;BME280;59071;42.138;24.768;2023-02-11T09:31:21;101441.44;;;8.20;31.69
71151;BME280;59071;42.138;24.768;2023-02-11T09:33:49;101442.06;;;7.48;32.52
71151;BME280;59071;42.138;24.768;2023-02-11T09:36:15;101440.28;;;8.33;31.82
71151;BME280;59071;42.138;24.768;2023-02-11T09:38:41;101439.03;;;8.65;31.11
71151;BME280;59071;42.138;24.768;2023-02-11T09:41:13;101436.53;;;7.98;31.93
71151;BME280;59071;42.138;24.768;2023-02-11T09:43:55;101426.16;;;8.05;31.70
71151;BME280;59071;42.138;24.768;2023-02-11T09:46:21;101421.94;;;7.74;32.00
71151;BME280;59071;42.138;24.768;2023-02-11T09:48:48;101415.47;;;6.61;34.03
71151;BME280;59071;42.138;24.768;2023-02-11T09:51:28;101417.13;;;7.40;33.34
71151;BME280;59071;42.138;24.768;2023-02-11T09:53:57;101406.78;;;8.04;32.03
71151;BME280;59071;42.138;24.768;2023-02-11T09:56:24;101401.38;;;7.86;32.37
71151;BME280;59071;42.138;24.768;2023-02-11T09:58:51;101397.03;;;7.95;31.81
71151;BME280;59071;42.138;24.768;2023-02-11T10:06:37;101376.38;;;7.61;33.30
71151;BME280;59071;42.138;24.768;2023-02-11T10:11:32;101365.47;;;7.74;33.10
71151;BME280;59071;42.138;24.768;2023-02-11T10:19:29;101344.84;;;7.11;33.73
71151;BME280;59071;42.138;24.768;2023-02-11T10:24:28;101332.78;;;7.46;33.35
71151;BME280;59071;42.138;24.768;2023-02-11T10:26:53;101317.91;;;8.00;31.35
71151;BME280;59071;42.138;24.768;2023-02-11T10:29:30;101328.88;;;8.33;32.85
71151;BME280;59071;42.138;24.768;2023-02-11T10:31:59;101312.56;;;7.82;32.95
71151;BME280;59071;42.138;24.768;2023-02-11T10:34:25;101304.97;;;7.69;33.17
71151;BME280;59071;42.138;24.768;2023-02-11T10:36:51;101301.28;;;6.95;32.91
71151;BME280;59071;42.138;24.768;2023-02-11T10:39:17;101296.19;;;7.31;33.40
71151;BME280;59071;42.138;24.768;2023-02-11T10:45:03;101284.31;;;7.63;31.98
71151;BME280;59071;42.138;24.768;2023-02-11T10:47:36;101277.41;;;7.80;31.74
71151;BME280;59071;42.138;24.768;2023-02-11T10:49:56;101282.44;;;7.83;31.81
71151;BME280;59071;42.138;24.768;2023-02-11T10:52:27;101258.34;;;7.49;31.49
71151;BME280;59071;42.138;24.768;2023-02-11T10:54:55;101264.06;;;8.17;31.75
71151;BME280;59071;42.138;24.768;2023-02-11T10:57:21;101234.28;;;7.60;30.98
71151;BME280;59071;42.138;24.768;2023-02-11T10:59:50;101252.94;;;8.14;30.85
71151;BME280;59071;42.138;24.768;2023-02-11T11:02:22;101254.59;;;8.15;30.27
71151;BME280;59071;42.138;24.768;2023-02-11T11:04:48;101246.94;;;8.30;30.50
71151;BME280;59071;42.138;24.768;2023-02-11T11:09:49;101232.94;;;7.56;31.22
71151;BME280;59071;42.138;24.768;2023-02-11T11:14:59;101225.13;;;8.18;29.65
71151;BME280;59071;42.138;24.768;2023-02-11T11:17:25;101222.03;;;8.22;29.83
71151;BME280;59071;42.138;24.768;2023-02-11T11:20:38;101218.53;;;8.40;29.63
71151;BME280;59071;42.138;24.768;2023-02-11T11:22:39;101216.34;;;8.17;29.66
71151;BME280;59071;42.138;24.768;2023-02-11T11:25:05;101207.22;;;7.84;29.74
71151;BME280;59071;42.138;24.768;2023-02-11T11:27:47;101199.72;;;8.33;29.42
71151;BME280;59071;42.138;24.768;2023-02-11T11:30:15;101201.88;;;9.00;28.24
71151;BME280;59071;42.138;24.768;2023-02-11T11:32:41;101193.81;;;9.61;27.36
71151;BME280;59071;42.138;24.768;2023-02-11T11:35:18;101194.56;;;9.02;27.96
71151;BME280;59071;42.138;24.768;2023-02-11T11:37:44;101189.38;;;8.92;27.33
71151;BME280;59071;42.138;24.768;2023-02-11T11:42:41;101177.53;;;8.78;27.24
71151;BME280;59071;42.138;24.768;2023-02-11T11:47:46;101166.75;;;8.80;27.07
71151;BME280;59071;42.138;24.768;2023-02-11T11:50:19;101157.72;;;8.65;27.32
71151;BME280;59071;42.138;24.768;2023-02-11T11:55:40;101143.69;;;9.15;26.88
71151;BME280;59071;42.138;24.768;2023-02-11T11:58:09;101143.31;;;9.10;26.74
71151;BME280;59071;42.138;24.768;2023-02-11T12:08:29;101126.41;;;9.11;25.61
71151;BME280;59071;42.138;24.768;2023-02-11T12:11:08;101121.84;;;9.29;24.58
71151;BME280;59071;42.138;24.768;2023-02-11T12:13:54;101122.97;;;8.84;25.38
71151;BME280;59071;42.138;24.768;2023-02-11T12:16:32;101109.94;;;8.65;25.75
71151;BME280;59071;42.138;24.768;2023-02-11T12:24:09;101102.78;;;9.50;24.68
71151;BME280;59071;42.138;24.768;2023-02-11T12:32:28;101097.19;;;9.03;24.59
71151;BME280;59071;42.138;24.768;2023-02-11T12:35:06;101089.59;;;8.47;24.99
71151;BME280;59071;42.138;24.768;2023-02-11T12:37:57;101093.13;;;8.90;24.89
71151;BME280;59071;42.138;24.768;2023-02-11T12:41:13;101088.28;;;9.28;24.25
71151;BME280;59071;42.138;24.768;2023-02-11T12:43:28;101088.34;;;9.02;24.52
71151;BME280;59071;42.138;24.768;2023-02-11T12:51:00;101077.09;;;8.66;24.63
71151;BME280;59071;42.138;24.768;2023-02-11T12:58:40;101076.06;;;9.93;24.65
71151;BME280;59071;42.138;24.768;2023-02-11T13:01:08;101072.75;;;9.91;23.21
71151;BME280;59071;42.138;24.768;2023-02-11T13:08:31;101054.78;;;9.76;24.34
71151;BME280;59071;42.138;24.768;2023-02-11T13:10:58;101059.28;;;9.84;23.44
71151;BME280;59071;42.138;24.768;2023-02-11T13:13:28;101054.09;;;9.42;23.98
71151;BME280;59071;42.138;24.768;2023-02-11T13:15:58;101049.47;;;10.01;23.56
71151;BME280;59071;42.138;24.768;2023-02-11T13:23:54;101040.41;;;9.12;24.20
71151;BME280;59071;42.138;24.768;2023-02-11T13:26:36;101040.09;;;9.15;23.70
71151;BME280;59071;42.138;24.768;2023-02-11T13:31:51;101035.00;;;9.38;22.94
71151;BME280;59071;42.138;24.768;2023-02-11T13:34:23;101032.41;;;8.87;23.65
71151;BME280;59071;42.138;24.768;2023-02-11T13:36:55;101036.16;;;9.35;23.38
71151;BME280;59071;42.138;24.768;2023-02-11T13:39:21;101028.19;;;9.27;22.96
71151;BME280;59071;42.138;24.768;2023-02-11T13:41:47;101023.50;;;9.21;22.74
71151;BME280;59071;42.138;24.768;2023-02-11T13:49:18;101011.91;;;9.22;22.34
71151;BME280;59071;42.138;24.768;2023-02-11T13:51:45;101012.56;;;9.24;22.48
71151;BME280;59071;42.138;24.768;2023-02-11T13:54:17;101016.88;;;9.17;22.79
71151;BME280;59071;42.138;24.768;2023-02-11T13:56:45;101006.44;;;9.32;22.63
71151;BME280;59071;42.138;24.768;2023-02-11T14:10:49;100994.78;;;9.08;23.41
71151;BME280;59071;42.138;24.768;2023-02-11T14:13:25;100989.81;;;9.13;22.80
71151;BME280;59071;42.138;24.768;2023-02-11T14:16:04;100991.44;;;8.90;24.78
71151;BME280;59071;42.138;24.768;2023-02-11T14:18:36;100982.22;;;8.68;23.83
71151;BME280;59071;42.138;24.768;2023-02-11T14:23:37;100976.38;;;8.56;23.73
71151;BME280;59071;42.138;24.768;2023-02-11T14:28:37;100972.63;;;8.06;23.66
71151;BME280;59071;42.138;24.768;2023-02-11T14:31:09;100969.84;;;7.81;23.95
71151;BME280;59071;42.138;24.768;2023-02-11T14:33:43;100964.56;;;7.90;24.09
71151;BME280;59071;42.138;24.768;2023-02-11T14:39:00;100968.22;;;7.89;23.99
71151;BME280;59071;42.138;24.768;2023-02-11T14:41:30;100967.91;;;7.92;24.32
71151;BME280;59071;42.138;24.768;2023-02-11T14:43:57;100964.78;;;7.70;25.16
71151;BME280;59071;42.138;24.768;2023-02-11T14:46:23;100962.94;;;7.89;25.20
71151;BME280;59071;42.138;24.768;2023-02-11T14:48:52;100960.50;;;7.69;25.92
71151;BME280;59071;42.138;24.768;2023-02-11T14:51:25;100958.03;;;7.76;25.82
71151;BME280;59071;42.138;24.768;2023-02-11T14:53:53;100961.22;;;7.17;26.10